createdAt,value
2019-03-06T00:01:11.678Z,100180.02
2019-03-06T00:03:41.219Z,100181.61
2019-03-06T00:06:16.744Z,100175.91
2019-03-06T00:08:42.010Z,100174.61
2019-03-06T00:11:11.612Z,100172.86
2019-03-06T00:13:41.188Z,100172.23
2019-03-06T00:16:10.706Z,100169.20
2019-03-06T00:18:40.230Z,100167.76
2019-03-06T00:21:09.758Z,100167.72
2019-03-06T00:23:39.288Z,100153.85
2019-03-06T00:26:08.826Z,100158.19
2019-03-06T00:28:38.434Z,100147.29
2019-03-06T00:31:07.982Z,100137.69
2019-03-06T00:33:37.533Z,100133.34
2019-03-06T00:36:08.986Z,100129.45
2019-03-06T00:38:38.527Z,100125.64
2019-03-06T00:41:09.686Z,100131.64
2019-03-06T00:43:39.238Z,100119.52
2019-03-06T00:46:08.771Z,100121.63
2019-03-06T00:48:38.289Z,100127.71
2019-03-06T00:51:07.843Z,100122.45
2019-03-06T00:53:37.393Z,100124.16
2019-03-06T00:56:06.936Z,100121.96
2019-03-06T00:58:36.467Z,100127.48
2019-03-06T01:01:06.003Z,100128.59
2019-03-06T01:03:35.547Z,100127.18
2019-03-06T01:06:05.147Z,100131.85
2019-03-06T01:08:35.051Z,100130.95
2019-03-06T01:11:04.790Z,100129.55
2019-03-06T01:13:34.313Z,100114.30
2019-03-06T01:16:03.911Z,100120.19
2019-03-06T01:18:33.464Z,100114.11
2019-03-06T01:21:03.154Z,100123.92
2019-03-06T01:23:33.856Z,100125.55
2019-03-06T01:26:03.377Z,100123.81
2019-03-06T01:28:32.927Z,100128.87
2019-03-06T01:31:02.454Z,100115.09
2019-03-06T01:33:36.154Z,100114.13
2019-03-06T01:36:07.415Z,100109.33
2019-03-06T01:38:54.707Z,100109.41
2019-03-06T01:41:24.002Z,100101.09
2019-03-06T01:43:57.874Z,100095.90
2019-03-06T01:46:27.411Z,100090.63
2019-03-06T01:48:56.983Z,100092.90
2019-03-06T01:51:26.677Z,100086.03
2019-03-06T01:53:56.402Z,100079.26
2019-03-06T01:56:25.944Z,100073.30
2019-03-06T01:58:55.503Z,100074.06
2019-03-06T02:01:25.061Z,100066.68
2019-03-06T02:03:54.743Z,100061.04
2019-03-06T02:06:24.274Z,100056.66
2019-03-06T02:08:53.851Z,100056.34
2019-03-06T02:11:23.435Z,100052.28
2019-03-06T02:13:52.978Z,100046.61
2019-03-06T02:16:22.519Z,100047.41
2019-03-06T02:18:52.053Z,100043.52
2019-03-06T02:21:21.685Z,100035.40
2019-03-06T02:23:51.207Z,100037.67
2019-03-06T02:26:20.730Z,100030.37
2019-03-06T02:28:50.438Z,100032.80
2019-03-06T02:31:19.990Z,100028.70
2019-03-06T02:33:49.526Z,100026.95
2019-03-06T02:36:19.074Z,100023.83
2019-03-06T02:38:48.585Z,100026.83
2019-03-06T02:41:18.302Z,100027.66
2019-03-06T02:43:47.844Z,100022.33
2019-03-06T02:46:17.365Z,100011.95
2019-03-06T02:48:46.937Z,100007.55
2019-03-06T02:51:16.481Z,100009.22
2019-03-06T02:53:46.007Z,99998.26
2019-03-06T02:56:15.552Z,99992.48
2019-03-06T02:59:01.287Z,99988.91
2019-03-06T03:01:38.227Z,99979.38
2019-03-06T03:04:21.557Z,99975.80
2019-03-06T03:06:55.414Z,99969.75
2019-03-06T03:09:24.938Z,99962.85
2019-03-06T03:11:54.785Z,99957.13
2019-03-06T03:14:24.858Z,99955.70
2019-03-06T03:16:54.499Z,99950.90
2019-03-06T03:19:24.026Z,99947.00
2019-03-06T03:21:53.652Z,99934.02
2019-03-06T03:24:23.419Z,99938.68
2019-03-06T03:26:53.046Z,99936.08
2019-03-06T03:29:22.599Z,99931.60
2019-03-06T03:31:52.261Z,99929.91
2019-03-06T03:34:21.973Z,99926.64
2019-03-06T03:36:52.014Z,99923.91
2019-03-06T03:39:21.545Z,99918.80
2019-03-06T03:41:51.080Z,99916.91
2019-03-06T03:44:20.628Z,99910.33
2019-03-06T03:46:50.157Z,99908.63
2019-03-06T03:49:19.845Z,99910.19
2019-03-06T03:51:49.387Z,99909.80
2019-03-06T03:54:18.947Z,99904.41
2019-03-06T03:56:48.456Z,99905.57
2019-03-06T03:59:18.007Z,99904.10
2019-03-06T04:01:47.641Z,99907.64
2019-03-06T04:04:20.362Z,99904.81
2019-03-06T04:06:49.893Z,99894.81
2019-03-06T04:09:19.419Z,99893.38
2019-03-06T04:11:48.960Z,99892.08
2019-03-06T04:14:18.493Z,99888.09
2019-03-06T04:16:48.067Z,99883.20
2019-03-06T04:19:17.550Z,99883.97
2019-03-06T04:21:47.097Z,99881.00
2019-03-06T04:24:16.612Z,99878.27
2019-03-06T04:26:46.223Z,99876.42
2019-03-06T04:29:15.757Z,99871.48
2019-03-06T04:31:45.293Z,99865.89
2019-03-06T04:34:14.850Z,99863.28
2019-03-06T04:36:44.382Z,99863.14
2019-03-06T04:39:14.048Z,99848.89
2019-03-06T04:41:43.620Z,99857.80
2019-03-06T04:44:13.178Z,99857.01
2019-03-06T04:46:42.717Z,99866.36
2019-03-06T04:49:12.307Z,99864.66
2019-03-06T04:51:41.915Z,99862.69
2019-03-06T04:54:11.497Z,99862.46
2019-03-06T04:56:41.070Z,99861.56
2019-03-06T04:59:10.591Z,99860.62
2019-03-06T05:01:40.107Z,99859.17
2019-03-06T05:04:09.640Z,99853.75
2019-03-06T05:06:39.159Z,99846.65
2019-03-06T05:09:09.033Z,99843.98
2019-03-06T05:11:38.557Z,99845.20
2019-03-06T05:14:08.324Z,99837.30
2019-03-06T05:16:48.027Z,99829.36
2019-03-06T05:19:17.561Z,99819.29
2019-03-06T05:21:47.107Z,99817.08
2019-03-06T05:24:16.643Z,99821.44
2019-03-06T05:26:46.194Z,99815.64
2019-03-06T05:29:15.744Z,99811.73
2019-03-06T05:32:22.761Z,99804.69
2019-03-06T05:34:52.297Z,99804.77
2019-03-06T05:38:08.422Z,99793.92
2019-03-06T05:40:37.985Z,99790.07
2019-03-06T05:43:07.579Z,99784.72
2019-03-06T05:45:37.112Z,99782.03
2019-03-06T05:48:06.881Z,99785.48
2019-03-06T05:50:36.442Z,99781.97
2019-03-06T05:53:06.038Z,99782.51
2019-03-06T05:55:35.643Z,99781.06
2019-03-06T05:58:05.163Z,99776.38
2019-03-06T06:00:34.724Z,99774.22
2019-03-06T06:03:04.323Z,99774.62
2019-03-06T06:05:33.934Z,99769.87
2019-03-06T06:08:03.498Z,99768.05
2019-03-06T06:10:33.362Z,99768.51
2019-03-06T06:13:03.018Z,99766.27
2019-03-06T06:15:32.520Z,99744.30
2019-03-06T06:18:02.177Z,99746.91
2019-03-06T06:20:31.701Z,99746.16
2019-03-06T06:23:03.042Z,99745.94
2019-03-06T06:25:34.577Z,99739.50
2019-03-06T06:28:04.182Z,99735.53
2019-03-06T06:30:33.913Z,99736.28
2019-03-06T06:33:03.479Z,99725.72
2019-03-06T06:35:33.000Z,99721.67
2019-03-06T06:38:02.619Z,99719.87
2019-03-06T06:40:32.205Z,99720.52
2019-03-06T06:43:01.742Z,99713.81
2019-03-06T06:45:31.354Z,99720.66
2019-03-06T06:48:19.235Z,99715.26
2019-03-06T06:51:10.591Z,99699.48
2019-03-06T06:54:21.170Z,99698.58
2019-03-06T06:57:19.383Z,99693.21
2019-03-06T07:00:20.205Z,99695.66
2019-03-06T07:03:10.619Z,99685.89
2019-03-06T07:05:41.775Z,99684.98
2019-03-06T07:08:18.746Z,99678.48
2019-03-06T07:10:50.487Z,99676.46
2019-03-06T07:13:19.776Z,99668.72
2019-03-06T07:15:49.073Z,99664.55
2019-03-06T07:18:36.303Z,99652.28
2019-03-06T07:21:22.371Z,99651.77
2019-03-06T07:23:53.565Z,99633.89
2019-03-06T07:26:30.634Z,99629.72
2019-03-06T07:29:17.676Z,99624.05
2019-03-06T07:32:04.721Z,99618.78
2019-03-06T07:34:35.889Z,99615.06
2019-03-06T07:37:09.577Z,99618.24
2019-03-06T07:39:40.796Z,99601.52
2019-03-06T07:42:15.693Z,99609.25
2019-03-06T07:45:40.356Z,99603.23
2019-03-06T07:48:11.527Z,99594.34
2019-03-06T07:50:42.683Z,99590.72
2019-03-06T07:54:10.317Z,99590.90
2019-03-06T07:56:49.510Z,99583.94
2019-03-06T07:59:19.043Z,99578.65
2019-03-06T08:01:59.455Z,99573.16
2019-03-06T08:04:29.000Z,99582.95
2019-03-06T08:07:03.048Z,99577.17
2019-03-06T08:09:32.674Z,99580.35
2019-03-06T08:12:06.323Z,99578.62
2019-03-06T08:14:52.390Z,99580.59
2019-03-06T08:17:26.006Z,99568.30
2019-03-06T08:20:13.344Z,99569.31
2019-03-06T08:22:47.211Z,99564.47
2019-03-06T08:25:22.519Z,99560.59
2019-03-06T08:27:52.062Z,99555.63
2019-03-06T08:30:22.746Z,99547.29
2019-03-06T08:32:52.276Z,99551.95
2019-03-06T08:35:21.827Z,99546.14
2019-03-06T08:37:51.357Z,99541.28
2019-03-06T08:40:20.897Z,99544.17
2019-03-06T08:42:50.428Z,99512.61
2019-03-06T08:45:27.347Z,99521.33
2019-03-06T08:47:58.547Z,99518.52
2019-03-06T08:50:32.509Z,99521.20
2019-03-06T08:53:10.894Z,99503.07
2019-03-06T08:55:42.188Z,99504.33
2019-03-06T08:58:19.305Z,99501.50
2019-03-06T09:00:50.957Z,99504.33
2019-03-06T09:03:30.041Z,99496.09
2019-03-06T09:06:10.178Z,99485.95
2019-03-06T09:08:57.356Z,99488.88
2019-03-06T09:11:35.321Z,99492.19
2019-03-06T09:14:06.576Z,99486.17
2019-03-06T09:16:53.632Z,99486.34
2019-03-06T09:19:24.825Z,99490.62
2019-03-06T09:21:58.943Z,99501.94
2019-03-06T09:24:46.255Z,99483.08
2019-03-06T09:27:23.215Z,99485.03
2019-03-06T09:29:54.400Z,99494.49
2019-03-06T09:32:25.577Z,99485.80
2019-03-06T09:34:56.759Z,99461.23
2019-03-06T09:37:33.370Z,99455.41
2019-03-06T09:40:11.412Z,99467.56
2019-03-06T09:42:58.249Z,99440.39
2019-03-06T09:45:37.667Z,99434.97
2019-03-06T09:48:26.229Z,99445.34
2019-03-06T09:51:02.626Z,99428.73
2019-03-06T09:53:34.261Z,99423.05
2019-03-06T09:56:11.235Z,99403.28
2019-03-06T09:58:40.618Z,99401.13
2019-03-06T10:01:20.703Z,99398.63
2019-03-06T10:03:51.884Z,99392.81
2019-03-06T10:06:39.249Z,99380.19
2019-03-06T10:09:13.436Z,99371.73
2019-03-06T10:11:59.462Z,99371.95
2019-03-06T10:14:46.473Z,99365.16
2019-03-06T10:17:23.475Z,99370.42
2019-03-06T10:19:55.825Z,99362.73
2019-03-06T10:22:25.364Z,99349.18
2019-03-06T10:24:55.742Z,99343.69
2019-03-06T10:27:25.300Z,99335.12
2019-03-06T10:29:54.914Z,99328.38
2019-03-06T10:32:24.475Z,99333.86
2019-03-06T10:34:55.095Z,99313.59
2019-03-06T10:37:24.743Z,99316.82
2019-03-06T10:39:54.384Z,99315.03
2019-03-06T10:42:24.230Z,99316.72
2019-03-06T10:44:53.800Z,99315.75
2019-03-06T10:47:23.585Z,99321.70
2019-03-06T10:49:53.165Z,99321.60
2019-03-06T10:52:22.712Z,99316.22
2019-03-06T10:54:52.263Z,99321.59
2019-03-06T10:57:21.811Z,99330.30
2019-03-06T10:59:51.383Z,99321.45
2019-03-06T11:02:20.928Z,99325.28
2019-03-06T11:04:52.115Z,99328.23
2019-03-06T11:07:21.932Z,99318.09
2019-03-06T11:09:51.518Z,99314.61
2019-03-06T11:12:21.200Z,99316.16
2019-03-06T11:14:50.926Z,99311.26
2019-03-06T11:17:20.603Z,99316.61
2019-03-06T11:19:50.510Z,99304.47
2019-03-06T11:22:20.114Z,99315.18
2019-03-06T11:24:49.649Z,99299.53
2019-03-06T11:27:19.398Z,99297.03
2019-03-06T11:29:49.041Z,99284.83
2019-03-06T11:32:18.831Z,99288.73
2019-03-06T11:34:48.501Z,99284.16
2019-03-06T11:37:18.186Z,99288.58
2019-03-06T11:39:47.715Z,99289.86
2019-03-06T11:42:17.280Z,99293.33
2019-03-06T11:44:46.861Z,99281.42
2019-03-06T11:47:16.545Z,99280.58
2019-03-06T11:49:46.144Z,99279.24
2019-03-06T11:52:17.945Z,99281.23
2019-03-06T11:54:48.120Z,99261.60
2019-03-06T11:57:17.696Z,99252.30
2019-03-06T11:59:47.468Z,99242.59
2019-03-06T12:02:17.273Z,99220.17
2019-03-06T12:04:46.793Z,99214.16
2019-03-06T12:07:16.413Z,99232.30
2019-03-06T12:09:46.013Z,99217.54
2019-03-06T12:12:15.556Z,99220.97
2019-03-06T12:14:45.135Z,99210.47
2019-03-06T12:17:15.802Z,99207.80
2019-03-06T12:19:45.359Z,99209.27
2019-03-06T12:22:14.914Z,99199.90
2019-03-06T12:24:44.453Z,99178.70
2019-03-06T12:27:14.579Z,99180.80
2019-03-06T12:29:44.115Z,99169.86
2019-03-06T12:32:13.996Z,99154.86
2019-03-06T12:34:43.591Z,99147.23
2019-03-06T12:37:14.111Z,99143.64
2019-03-06T12:39:43.664Z,99147.17
2019-03-06T12:42:14.797Z,99137.42
2019-03-06T12:44:44.715Z,99132.64
2019-03-06T12:47:14.432Z,99130.06
2019-03-06T12:49:44.062Z,99125.25
2019-03-06T12:52:13.603Z,99127.02
2019-03-06T12:54:43.132Z,99149.17
2019-03-06T12:57:12.862Z,99127.91
2019-03-06T12:59:42.400Z,99134.44
2019-03-06T13:02:12.016Z,99127.11
2019-03-06T13:04:41.796Z,99125.70
2019-03-06T13:07:11.335Z,99110.46
2019-03-06T13:09:40.866Z,99114.77
2019-03-06T13:12:11.006Z,99106.19
2019-03-06T13:14:40.556Z,99095.78
2019-03-06T13:17:10.213Z,99088.67
2019-03-06T13:19:39.738Z,99087.34
2019-03-06T13:22:11.406Z,99086.37
2019-03-06T13:24:40.910Z,99092.80
2019-03-06T13:27:10.437Z,99081.56
2019-03-06T13:29:39.996Z,99079.36
2019-03-06T13:32:12.039Z,99076.10
2019-03-06T13:34:50.105Z,99069.47
2019-03-06T13:37:12.109Z,99076.10
2019-03-06T13:39:41.836Z,99068.78
2019-03-06T13:42:13.187Z,99050.50
2019-03-06T13:44:42.853Z,99049.66
2019-03-06T13:47:12.449Z,99048.61
2019-03-06T13:49:43.831Z,99042.82
2019-03-06T13:52:13.246Z,99036.09
2019-03-06T13:54:42.789Z,99033.26
2019-03-06T13:57:12.518Z,99021.58
2019-03-06T13:59:42.031Z,99036.99
2019-03-06T14:02:11.813Z,99029.16
2019-03-06T14:04:41.382Z,99026.12
2019-03-06T14:07:11.372Z,99018.17
2019-03-06T14:09:41.027Z,99010.14
2019-03-06T14:12:10.564Z,99002.31
2019-03-06T14:14:40.089Z,99000.58
2019-03-06T14:17:09.636Z,98998.44
2019-03-06T14:19:39.250Z,99003.95
2019-03-06T14:22:08.863Z,98986.13
2019-03-06T14:24:38.493Z,98994.81
2019-03-06T14:27:08.778Z,99000.70
2019-03-06T14:29:38.311Z,98997.81
2019-03-06T14:32:14.380Z,99005.14
2019-03-06T14:34:39.207Z,99005.34
2019-03-06T14:37:08.738Z,99014.52
2019-03-06T14:39:38.274Z,99006.02
2019-03-06T14:42:08.076Z,99014.57
2019-03-06T14:44:37.620Z,99023.19
2019-03-06T14:47:08.529Z,99011.78
2019-03-06T14:49:38.994Z,99021.80
2019-03-06T14:52:09.003Z,99033.00
2019-03-06T14:54:40.534Z,99031.47
2019-03-06T14:57:10.474Z,99033.08
2019-03-06T14:59:40.675Z,99024.63
2019-03-06T15:02:13.771Z,99040.95
2019-03-06T15:04:43.454Z,99036.44
2019-03-06T15:07:13.614Z,99050.28
2019-03-06T15:09:43.195Z,99044.97
2019-03-06T15:12:12.930Z,99032.09
2019-03-06T15:14:45.180Z,99037.85
2019-03-06T15:17:15.064Z,99035.15
2019-03-06T15:19:45.179Z,99026.55
2019-03-06T15:22:15.926Z,99015.77
2019-03-06T15:24:45.652Z,99007.78
2019-03-06T15:27:15.438Z,99015.06
2019-03-06T15:29:48.244Z,99015.68
2019-03-06T15:32:20.049Z,99009.34
2019-03-06T15:34:50.268Z,99019.11
2019-03-06T15:37:20.657Z,99002.90
2019-03-06T15:39:52.150Z,99008.25
2019-03-06T15:42:22.035Z,99007.09
2019-03-06T15:44:52.634Z,99002.20
2019-03-06T15:47:22.644Z,99000.16
2019-03-06T15:49:53.090Z,99005.30
2019-03-06T15:52:23.212Z,99002.82
2019-03-06T15:54:53.304Z,98988.76
2019-03-06T15:57:23.191Z,98995.17
2019-03-06T15:59:52.893Z,98990.94
2019-03-06T16:02:22.988Z,98974.25
2019-03-06T16:04:55.475Z,98972.69
2019-03-06T16:07:25.636Z,98970.46
2019-03-06T16:09:58.636Z,98977.63
2019-03-06T16:12:28.593Z,98971.19
2019-03-06T16:14:58.590Z,98967.17
2019-03-06T16:17:28.441Z,98960.17
2019-03-06T16:19:58.521Z,98962.32
2019-03-06T16:22:28.403Z,98963.41
2019-03-06T16:24:58.753Z,98951.28
2019-03-06T16:27:28.745Z,98950.92
2019-03-06T16:29:58.703Z,98944.28
2019-03-06T16:32:29.163Z,98946.39
2019-03-06T16:34:58.989Z,98937.11
2019-03-06T16:37:30.390Z,98935.11
2019-03-06T16:40:03.999Z,98938.67
2019-03-06T16:42:34.000Z,98921.41
2019-03-06T16:45:04.899Z,98934.87
2019-03-06T16:47:35.528Z,98932.64
2019-03-06T16:50:16.340Z,98932.78
2019-03-06T16:52:47.695Z,98929.10
2019-03-06T16:55:20.922Z,98933.11
2019-03-06T16:57:51.594Z,98925.78
2019-03-06T17:00:31.286Z,98918.64
2019-03-06T17:03:05.095Z,98925.94
2019-03-06T17:05:35.428Z,98929.77
2019-03-06T17:08:05.780Z,98921.09
2019-03-06T17:10:37.639Z,98921.11
2019-03-06T17:13:08.301Z,98924.12
2019-03-06T17:15:39.474Z,98923.63
2019-03-06T17:18:11.777Z,98934.37
2019-03-06T17:20:41.589Z,98923.55
2019-03-06T17:23:12.571Z,98925.48
2019-03-06T17:25:42.596Z,98925.02
2019-03-06T17:28:12.473Z,98919.65
2019-03-06T17:30:43.672Z,98930.95
2019-03-06T17:33:18.549Z,98920.03
2019-03-06T17:35:49.325Z,98922.05
2019-03-06T17:38:21.430Z,98925.60
2019-03-06T17:40:53.380Z,98921.45
2019-03-06T17:43:24.612Z,98921.58
2019-03-06T17:45:55.085Z,98918.97
2019-03-06T17:48:24.725Z,98918.83
2019-03-06T17:50:56.184Z,98920.88
2019-03-06T17:53:27.450Z,98916.34
2019-03-06T17:55:57.386Z,98919.30
2019-03-06T17:58:27.470Z,98917.29
2019-03-06T18:00:59.060Z,98928.59
2019-03-06T18:03:33.199Z,98922.42
2019-03-06T18:06:03.361Z,98926.34
2019-03-06T18:08:33.214Z,98920.97
2019-03-06T18:11:04.783Z,98915.27
2019-03-06T18:13:34.672Z,98913.27
2019-03-06T18:16:04.590Z,98909.11
2019-03-06T18:18:34.442Z,98910.88
2019-03-06T18:21:04.383Z,98906.22
2019-03-06T18:23:34.502Z,98912.43
2019-03-06T18:26:06.082Z,98904.45
2019-03-06T18:28:36.382Z,98902.92
2019-03-06T18:31:07.050Z,98894.14
2019-03-06T18:33:36.884Z,98898.06
2019-03-06T18:36:06.752Z,98892.00
2019-03-06T18:38:36.572Z,98891.16
2019-03-06T18:41:06.676Z,98897.20
2019-03-06T18:43:36.590Z,98892.70
2019-03-06T18:46:06.496Z,98893.52
2019-03-06T18:48:36.496Z,98889.35
2019-03-06T18:51:06.343Z,98883.78
2019-03-06T18:53:36.182Z,98885.33
2019-03-06T18:56:06.176Z,98881.74
2019-03-06T18:58:37.090Z,98877.11
2019-03-06T19:01:07.449Z,98882.81
2019-03-06T19:03:39.789Z,98876.77
2019-03-06T19:06:09.922Z,98869.17
2019-03-06T19:08:42.095Z,98870.47
2019-03-06T19:11:17.013Z,98867.25
2019-03-06T19:13:45.178Z,98869.50
2019-03-06T19:16:15.120Z,98858.58
2019-03-06T19:18:45.626Z,98857.27
2019-03-06T19:21:15.542Z,98853.72
2019-03-06T19:23:45.951Z,98846.20
2019-03-06T19:26:17.828Z,98846.81
2019-03-06T19:28:50.701Z,98848.48
2019-03-06T19:31:24.051Z,98845.97
2019-03-06T19:33:55.612Z,98843.02
2019-03-06T19:36:26.766Z,98840.27
2019-03-06T19:38:56.682Z,98832.33
2019-03-06T19:41:26.937Z,98832.80
2019-03-06T19:43:58.191Z,98823.05
2019-03-06T19:46:28.297Z,98824.26
2019-03-06T19:48:58.481Z,98811.66
2019-03-06T19:51:28.940Z,98807.27
2019-03-06T19:53:59.783Z,98804.30
2019-03-06T19:56:31.488Z,98812.60
2019-03-06T19:59:01.714Z,98809.28
2019-03-06T20:01:32.116Z,98812.73
2019-03-06T20:04:01.939Z,98812.73
2019-03-06T20:06:33.594Z,98808.45
2019-03-06T20:09:05.814Z,98807.61
2019-03-06T20:11:37.445Z,98810.83
2019-03-06T20:14:07.579Z,98804.30
2019-03-06T20:16:37.458Z,98802.98
2019-03-06T20:19:07.814Z,98800.23
2019-03-06T20:21:37.944Z,98795.38
2019-03-06T20:24:10.383Z,98801.78
2019-03-06T20:26:40.050Z,98802.85
2019-03-06T20:29:09.857Z,98800.00
2019-03-06T20:31:39.836Z,98803.92
2019-03-06T20:34:09.579Z,98807.51
2019-03-06T20:36:40.033Z,98808.31
2019-03-06T20:39:13.675Z,98811.30
2019-03-06T20:41:45.011Z,98809.88
2019-03-06T20:44:18.453Z,98806.44
2019-03-06T20:46:49.380Z,98804.77
2019-03-06T20:49:21.380Z,98802.75
2019-03-06T20:51:54.196Z,98798.83
2019-03-06T20:54:24.063Z,98793.00
2019-03-06T20:56:54.505Z,98795.51
2019-03-06T20:59:25.015Z,98794.67
2019-03-06T21:01:54.818Z,98787.30
2019-03-06T21:04:24.828Z,98788.98
2019-03-06T21:06:54.824Z,98790.99
2019-03-06T21:09:24.821Z,98783.99
2019-03-06T21:11:55.097Z,98785.16
2019-03-06T21:14:25.297Z,98784.83
2019-03-06T21:16:54.922Z,98786.70
2019-03-06T21:19:26.421Z,98777.09
2019-03-06T21:21:56.182Z,98776.72
2019-03-06T21:24:26.034Z,98776.02
2019-03-06T21:26:55.735Z,98776.62
2019-03-06T21:29:25.382Z,98772.47
2019-03-06T21:31:56.067Z,98772.09
2019-03-06T21:34:26.857Z,98764.50
2019-03-06T21:36:56.836Z,98766.87
2019-03-06T21:39:26.575Z,98762.35
2019-03-06T21:41:56.403Z,98758.44
2019-03-06T21:44:26.336Z,98751.44
2019-03-06T21:46:56.197Z,98748.59
2019-03-06T21:49:26.916Z,98742.89
2019-03-06T21:51:57.079Z,98748.59
2019-03-06T21:54:28.201Z,98747.88
2019-03-06T21:56:58.230Z,98744.33
2019-03-06T21:59:27.940Z,98743.96
2019-03-06T22:01:57.612Z,98747.88
2019-03-06T22:04:27.435Z,98744.90
2019-03-06T22:06:57.515Z,98744.43
2019-03-06T22:09:27.656Z,98740.04
2019-03-06T22:11:58.046Z,98738.37
2019-03-06T22:14:27.884Z,98733.98
2019-03-06T22:16:59.543Z,98736.50
2019-03-06T22:19:31.646Z,98737.80
2019-03-06T22:22:03.532Z,98740.75
2019-03-06T22:24:33.749Z,98736.73
2019-03-06T22:27:03.776Z,98733.52
2019-03-06T22:29:35.542Z,98728.39
2019-03-06T22:32:06.154Z,98720.55
2019-03-06T22:34:38.305Z,98724.84
2019-03-06T22:37:13.964Z,98719.98
2019-03-06T22:39:44.773Z,98723.53
2019-03-06T22:42:15.493Z,98713.78
2019-03-06T22:44:46.691Z,98713.92
2019-03-06T22:47:24.570Z,98706.19
2019-03-06T22:49:59.719Z,98707.25
2019-03-06T22:52:37.342Z,98698.84
2019-03-06T22:55:10.810Z,98692.17
2019-03-06T22:57:40.644Z,98691.94
2019-03-06T23:00:32.032Z,98690.03
2019-03-06T23:03:02.103Z,98684.34
2019-03-06T23:05:37.180Z,98682.34
2019-03-06T23:08:06.941Z,98671.98
2019-03-06T23:10:36.938Z,98663.06
2019-03-06T23:13:06.945Z,98659.65
2019-03-06T23:15:37.031Z,98663.57
2019-03-06T23:18:07.276Z,98650.37
2019-03-06T23:20:37.470Z,98644.91
2019-03-06T23:23:07.914Z,98645.01
2019-03-06T23:25:37.681Z,98633.86
2019-03-06T23:28:07.485Z,98631.38
2019-03-06T23:30:37.634Z,98624.38
2019-03-06T23:33:07.472Z,98619.63
2019-03-06T23:35:37.247Z,98608.95
2019-03-06T23:38:07.299Z,98603.96
2019-03-06T23:40:38.934Z,98596.13
2019-03-06T23:43:10.393Z,98599.07
2019-03-06T23:45:40.479Z,98593.38
2019-03-06T23:48:10.349Z,98595.06
2019-03-06T23:50:40.341Z,98588.39
2019-03-06T23:53:11.902Z,98592.06
2019-03-06T23:55:41.843Z,98583.29
2019-03-06T23:58:11.850Z,98584.00
